createdAt,value
2023-01-13T00:01:44.374Z,11.39
2023-01-13T00:04:29.828Z,11.31
2023-01-13T00:07:15.833Z,11.30
2023-01-13T00:10:01.233Z,10.74
2023-01-13T00:12:46.860Z,11.04
2023-01-13T00:15:33.782Z,11.11
2023-01-13T00:18:19.620Z,11.62
2023-01-13T00:21:21.847Z,11.38
2023-01-13T00:24:07.368Z,11.08
2023-01-13T00:26:57.663Z,11.16
2023-01-13T00:29:43.351Z,11.37
2023-01-13T00:32:28.934Z,11.64
2023-01-13T00:35:14.509Z,11.00
2023-01-13T00:38:00.216Z,11.18
2023-01-13T00:40:59.614Z,11.37
2023-01-13T00:43:46.396Z,11.73
2023-01-13T00:46:32.067Z,11.64
2023-01-13T00:49:17.914Z,12.20
2023-01-13T00:52:11.782Z,11.55
2023-01-13T00:54:57.420Z,12.05
2023-01-13T00:57:43.554Z,11.24
2023-01-13T01:00:35.653Z,11.35
2023-01-13T01:03:21.461Z,12.02
2023-01-13T01:06:15.755Z,11.46
2023-01-13T01:09:01.496Z,12.01
2023-01-13T01:11:47.439Z,11.29
2023-01-13T01:14:32.768Z,11.93
2023-01-13T01:17:20.329Z,11.56
2023-01-13T01:20:06.341Z,11.53
2023-01-13T01:22:51.825Z,11.65
2023-01-13T01:25:37.261Z,11.80
2023-01-13T01:28:23.149Z,11.81
2023-01-13T01:31:28.362Z,12.32
2023-01-13T01:34:14.191Z,12.12
2023-01-13T01:36:59.696Z,12.09
2023-01-13T01:39:45.150Z,11.85
2023-01-13T01:42:48.980Z,12.27
2023-01-13T01:45:35.029Z,12.16
2023-01-13T01:48:21.213Z,12.01
2023-01-13T01:51:12.748Z,11.68
2023-01-13T01:54:00.276Z,11.76
2023-01-13T01:56:47.348Z,11.42
2023-01-13T01:59:33.730Z,11.74
2023-01-13T02:02:19.790Z,11.40
2023-01-13T02:05:06.677Z,11.59
2023-01-13T02:07:56.195Z,11.17
2023-01-13T02:10:45.797Z,11.50
2023-01-13T02:13:31.406Z,11.70
2023-01-13T02:16:24.434Z,11.54
2023-01-13T02:19:39.265Z,11.54
2023-01-13T02:23:00.567Z,11.38
2023-01-13T02:26:07.091Z,11.27
2023-01-13T02:29:31.190Z,11.69
2023-01-13T02:32:45.279Z,11.49
2023-01-13T02:35:52.043Z,11.14
2023-01-13T02:38:56.704Z,11.42
2023-01-13T02:43:12.411Z,11.06
2023-01-13T02:46:08.999Z,11.61
2023-01-13T02:48:58.106Z,11.37
2023-01-13T02:52:08.867Z,11.57
2023-01-13T02:55:34.597Z,11.47
2023-01-13T02:58:27.988Z,11.61
2023-01-13T03:01:13.877Z,11.81
2023-01-13T03:03:59.645Z,11.62
2023-01-13T03:06:46.721Z,11.68
2023-01-13T03:09:48.459Z,11.55
2023-01-13T03:13:20.863Z,11.10
2023-01-13T03:16:56.605Z,11.32
2023-01-13T03:20:20.640Z,12.17
2023-01-13T03:23:30.204Z,11.93
2023-01-13T03:26:52.766Z,11.61
2023-01-13T03:29:58.143Z,11.68
2023-01-13T03:32:52.276Z,11.70
2023-01-13T03:35:44.329Z,11.71
2023-01-13T03:38:54.793Z,11.47
2023-01-13T03:41:57.416Z,12.10
2023-01-13T03:44:59.380Z,11.53
2023-01-13T03:47:56.370Z,11.28
2023-01-13T03:50:50.261Z,18.04
2023-01-13T03:54:05.414Z,12.85
2023-01-13T03:57:04.921Z,12.33
2023-01-13T03:59:56.025Z,12.75
2023-01-13T04:02:53.410Z,12.57
2023-01-13T04:05:46.991Z,12.56
2023-01-13T04:08:37.151Z,12.70
2023-01-13T04:11:38.808Z,12.73
2023-01-13T04:14:26.944Z,12.54
2023-01-13T04:17:12.760Z,12.70
2023-01-13T04:19:58.640Z,12.23
2023-01-13T04:22:44.080Z,12.25
2023-01-13T04:25:29.617Z,12.63
2023-01-13T04:28:16.038Z,12.25
2023-01-13T04:31:01.723Z,12.61
2023-01-13T04:33:47.728Z,11.99
2023-01-13T04:36:33.561Z,12.73
2023-01-13T04:39:19.445Z,12.30
2023-01-13T04:42:05.016Z,12.39
2023-01-13T04:44:50.489Z,12.81
2023-01-13T04:47:36.613Z,12.61
2023-01-13T04:50:22.794Z,13.01
2023-01-13T04:53:08.539Z,12.97
2023-01-13T04:55:53.917Z,13.45
2023-01-13T04:58:39.278Z,12.50
2023-01-13T05:01:24.851Z,13.31
2023-01-13T05:04:10.708Z,13.21
2023-01-13T05:06:56.350Z,12.93
2023-01-13T05:09:41.876Z,12.88
2023-01-13T05:12:46.308Z,12.91
2023-01-13T05:15:50.797Z,12.91
2023-01-13T05:18:36.554Z,12.82
2023-01-13T05:21:41.149Z,12.41
2023-01-13T05:24:44.864Z,12.71
2023-01-13T05:27:31.612Z,12.62
2023-01-13T05:30:17.996Z,12.72
2023-01-13T05:33:04.885Z,13.10
2023-01-13T05:35:50.324Z,13.10
2023-01-13T05:38:35.697Z,13.63
2023-01-13T05:41:39.604Z,13.45
2023-01-13T05:44:25.396Z,13.04
2023-01-13T05:47:11.027Z,12.30
2023-01-13T05:49:56.323Z,12.83
2023-01-13T05:52:43.458Z,13.01
2023-01-13T05:55:28.993Z,12.92
2023-01-13T05:58:16.485Z,13.09
2023-01-13T06:01:07.274Z,12.53
2023-01-13T06:03:53.035Z,13.33
2023-01-13T06:06:38.751Z,13.58
2023-01-13T06:09:25.894Z,13.64
2023-01-13T06:12:13.378Z,13.57
2023-01-13T06:14:58.981Z,13.53
2023-01-13T06:17:44.692Z,13.05
2023-01-13T06:20:29.999Z,13.38
2023-01-13T06:23:16.085Z,12.85
2023-01-13T06:26:18.556Z,13.05
2023-01-13T06:29:04.683Z,12.87
2023-01-13T06:31:50.654Z,13.01
2023-01-13T06:34:37.873Z,13.31
2023-01-13T06:37:26.166Z,12.27
2023-01-13T06:40:14.108Z,13.24
2023-01-13T06:43:16.409Z,12.43
2023-01-13T06:46:02.749Z,12.48
2023-01-13T06:48:48.412Z,12.97
2023-01-13T06:51:33.961Z,12.58
2023-01-13T06:54:19.332Z,13.05
2023-01-13T06:57:04.816Z,13.09
2023-01-13T06:59:50.924Z,13.08
2023-01-13T07:02:36.358Z,12.85
2023-01-13T07:05:22.914Z,12.79
2023-01-13T07:08:09.398Z,13.26
2023-01-13T07:10:55.277Z,13.69
2023-01-13T07:13:59.474Z,13.84
2023-01-13T07:16:44.997Z,13.51
2023-01-13T07:19:31.157Z,13.49
2023-01-13T07:22:16.513Z,13.37
2023-01-13T07:25:01.800Z,13.73
2023-01-13T07:27:47.405Z,13.30
2023-01-13T07:30:32.760Z,13.53
2023-01-13T07:33:18.617Z,13.04
2023-01-13T07:36:06.252Z,13.48
2023-01-13T07:38:54.812Z,13.47
2023-01-13T07:41:59.652Z,13.34
2023-01-13T07:44:45.384Z,13.22
2023-01-13T07:47:31.299Z,13.23
2023-01-13T07:50:16.893Z,13.76
2023-01-13T07:53:03.030Z,13.83
2023-01-13T07:55:49.766Z,13.60
2023-01-13T07:58:37.191Z,13.89
2023-01-13T08:01:23.138Z,14.04
2023-01-13T08:04:08.999Z,13.86
2023-01-13T08:06:54.438Z,13.55
2023-01-13T08:09:40.311Z,13.54
2023-01-13T08:12:54.199Z,13.08
2023-01-13T08:15:42.571Z,13.23
2023-01-13T08:18:28.189Z,13.46
2023-01-13T08:21:14.867Z,13.41
2023-01-13T08:24:00.468Z,13.30
2023-01-13T08:26:45.889Z,13.49
2023-01-13T08:29:31.264Z,13.68
2023-01-13T08:32:17.209Z,13.36
2023-01-13T08:35:03.070Z,13.20
2023-01-13T08:37:49.527Z,13.38
2023-01-13T08:40:35.438Z,13.57
2023-01-13T08:43:20.853Z,13.53
2023-01-13T08:46:07.858Z,13.62
2023-01-13T08:48:53.230Z,12.86
2023-01-13T08:51:38.760Z,13.36
2023-01-13T08:54:24.011Z,13.89
2023-01-13T08:57:09.575Z,13.46
2023-01-13T08:59:55.252Z,13.60
2023-01-13T09:02:41.019Z,12.95
2023-01-13T09:05:26.736Z,13.55
2023-01-13T09:08:12.552Z,13.30
2023-01-13T09:10:58.184Z,13.65
2023-01-13T09:13:44.290Z,14.07
2023-01-13T09:16:29.866Z,13.62
2023-01-13T09:19:15.742Z,13.05
2023-01-13T09:22:01.004Z,13.69
2023-01-13T09:24:46.940Z,13.64
2023-01-13T09:27:32.577Z,13.62
2023-01-13T09:30:18.769Z,14.04
2023-01-13T09:33:24.489Z,14.37
2023-01-13T09:36:09.973Z,14.61
2023-01-13T09:38:55.317Z,14.09
2023-01-13T09:42:05.291Z,14.80
2023-01-13T09:45:05.718Z,14.99
2023-01-13T09:48:11.753Z,14.94
2023-01-13T09:51:20.922Z,14.78
2023-01-13T09:54:27.753Z,15.26
2023-01-13T09:57:16.488Z,15.75
2023-01-13T10:00:02.557Z,16.15
2023-01-13T10:03:21.212Z,15.23
2023-01-13T10:06:47.372Z,14.74
2023-01-13T10:09:52.194Z,15.15
2023-01-13T10:13:09.616Z,14.52
2023-01-13T10:16:24.194Z,14.27
2023-01-13T10:19:55.240Z,15.12
2023-01-13T10:23:14.347Z,14.33
2023-01-13T10:26:35.306Z,15.13
2023-01-13T10:29:29.625Z,15.22
2023-01-13T10:32:15.049Z,15.00
2023-01-13T10:35:01.671Z,15.21
2023-01-13T10:37:57.597Z,14.48
2023-01-13T10:40:53.970Z,14.75
2023-01-13T10:43:39.864Z,14.89
2023-01-13T10:46:25.603Z,15.52
2023-01-13T10:49:36.258Z,14.89
2023-01-13T10:52:31.916Z,14.41
2023-01-13T10:55:36.704Z,14.74
2023-01-13T10:58:22.279Z,15.33
2023-01-13T11:01:13.089Z,14.89
2023-01-13T11:03:59.064Z,14.60
2023-01-13T11:06:47.377Z,14.70
2023-01-13T11:09:33.690Z,14.71
2023-01-13T11:12:33.604Z,14.27
2023-01-13T11:15:24.515Z,13.82
2023-01-13T11:18:24.767Z,14.46
2023-01-13T11:21:23.028Z,14.96
2023-01-13T11:24:38.297Z,15.23
2023-01-13T11:27:47.977Z,14.42
2023-01-13T11:30:50.670Z,14.72
2023-01-13T11:33:41.816Z,14.77
2023-01-13T11:36:43.542Z,17.18
2023-01-13T11:40:05.819Z,16.33
2023-01-13T11:43:16.701Z,16.62
2023-01-13T11:46:02.793Z,16.81
2023-01-13T11:48:48.332Z,15.57
2023-01-13T11:51:49.939Z,15.33
2023-01-13T11:55:15.788Z,16.43
2023-01-13T11:58:54.889Z,17.03
2023-01-13T12:02:19.686Z,16.12
2023-01-13T12:05:41.996Z,15.98
2023-01-13T12:09:19.147Z,15.68
2023-01-13T12:12:36.543Z,15.43
2023-01-13T12:15:22.494Z,15.73
2023-01-13T12:18:26.444Z,15.11
2023-01-13T12:21:33.128Z,15.60
2023-01-13T12:24:43.439Z,14.54
2023-01-13T12:27:57.966Z,15.04
2023-01-13T12:30:51.113Z,15.91
2023-01-13T12:33:51.986Z,15.66
2023-01-13T12:37:27.643Z,15.23
2023-01-13T12:40:47.057Z,14.87
2023-01-13T12:43:52.356Z,14.74
2023-01-13T12:46:56.262Z,15.22
2023-01-13T12:49:45.911Z,15.37
2023-01-13T12:52:46.035Z,15.22
2023-01-13T12:55:36.342Z,14.40
2023-01-13T12:58:28.641Z,15.20
2023-01-13T13:01:15.405Z,14.56
2023-01-13T13:04:10.281Z,14.41
2023-01-13T13:07:17.431Z,14.63
2023-01-13T13:10:16.496Z,14.35
2023-01-13T13:13:20.280Z,14.84
2023-01-13T13:16:31.911Z,14.61
2023-01-13T13:19:21.287Z,13.80
2023-01-13T13:22:12.547Z,14.31
2023-01-13T13:24:57.677Z,13.91
2023-01-13T13:27:49.106Z,14.04
2023-01-13T13:30:44.727Z,14.62
2023-01-13T13:33:56.729Z,14.37
2023-01-13T13:37:09.937Z,14.04
2023-01-13T13:40:14.840Z,13.72
2023-01-13T13:43:19.331Z,14.16
2023-01-13T13:49:11.989Z,13.89
2023-01-13T13:52:18.416Z,13.94
2023-01-13T13:55:28.808Z,13.49
2023-01-13T13:58:17.607Z,13.76
2023-01-13T14:01:05.438Z,14.48
2023-01-13T14:04:07.188Z,13.81
2023-01-13T14:07:00.128Z,13.24
2023-01-13T14:09:56.556Z,13.42
2023-01-13T14:12:42.524Z,13.44
2023-01-13T14:15:36.281Z,13.59
2023-01-13T14:18:22.724Z,13.96
2023-01-13T14:21:21.144Z,12.87
2023-01-13T14:24:17.605Z,14.13
2023-01-13T14:27:30.899Z,14.17
2023-01-13T14:30:18.759Z,13.93
2023-01-13T14:33:05.776Z,13.26
2023-01-13T14:36:23.201Z,13.25
2023-01-13T14:39:24.613Z,13.63
2023-01-13T14:42:15.642Z,13.60
2023-01-13T14:45:02.560Z,13.15
2023-01-13T14:47:53.662Z,12.86
2023-01-13T14:50:39.504Z,13.55
2023-01-13T14:53:47.157Z,13.06
2023-01-13T14:56:44.337Z,13.23
2023-01-13T15:00:19.043Z,13.07
2023-01-13T15:03:08.808Z,12.79
2023-01-13T15:05:54.632Z,13.18
2023-01-13T15:08:40.405Z,12.64
2023-01-13T15:11:28.703Z,12.44
2023-01-13T15:14:49.237Z,12.67
2023-01-13T15:17:35.061Z,12.73
2023-01-13T15:20:25.113Z,12.38
2023-01-13T15:23:11.265Z,12.45
2023-01-13T15:25:59.717Z,12.98
2023-01-13T15:28:45.678Z,13.14
2023-01-13T15:31:34.552Z,12.49
2023-01-13T15:34:20.611Z,12.01
2023-01-13T15:37:09.214Z,12.16
2023-01-13T15:39:55.013Z,12.67
2023-01-13T15:42:59.597Z,12.31
2023-01-13T15:46:05.300Z,12.84
2023-01-13T15:48:54.940Z,12.70
2023-01-13T15:51:40.943Z,12.92
2023-01-13T15:54:26.338Z,12.15
2023-01-13T15:57:29.115Z,13.01
2023-01-13T16:00:20.359Z,12.99
2023-01-13T16:03:06.353Z,12.38
2023-01-13T16:05:51.737Z,12.55
2023-01-13T16:08:37.088Z,12.09
2023-01-13T16:11:22.325Z,12.16
2023-01-13T16:14:07.750Z,12.92
2023-01-13T16:16:53.087Z,12.46
2023-01-13T16:19:38.543Z,12.73
2023-01-13T16:22:23.990Z,12.69
2023-01-13T16:25:18.526Z,12.29
2023-01-13T16:28:04.219Z,12.75
2023-01-13T16:30:50.538Z,12.53
2023-01-13T16:33:36.298Z,11.81
2023-01-13T16:36:22.555Z,12.07
2023-01-13T16:39:21.726Z,12.41
2023-01-13T16:42:07.417Z,12.44
2023-01-13T16:44:52.940Z,12.13
2023-01-13T16:47:39.143Z,12.75
2023-01-13T16:50:41.135Z,11.94
2023-01-13T16:53:27.802Z,12.19
2023-01-13T16:56:29.134Z,12.37
2023-01-13T16:59:14.895Z,12.75
2023-01-13T17:02:02.086Z,12.32
2023-01-13T17:04:47.814Z,11.79
2023-01-13T17:07:33.601Z,12.32
2023-01-13T17:10:24.032Z,12.10
2023-01-13T17:13:15.936Z,11.70
2023-01-13T17:16:02.113Z,12.12
2023-01-13T17:18:48.446Z,12.09
2023-01-13T17:21:34.081Z,12.04
2023-01-13T17:24:20.026Z,12.02
2023-01-13T17:27:05.541Z,11.94
2023-01-13T17:29:50.924Z,12.03
2023-01-13T17:32:36.544Z,11.47
2023-01-13T17:35:24.601Z,11.27
2023-01-13T17:38:10.242Z,11.48
2023-01-13T17:41:00.734Z,11.43
2023-01-13T17:43:47.934Z,11.77
2023-01-13T17:46:33.686Z,11.54
2023-01-13T17:49:21.745Z,11.48
2023-01-13T17:52:07.690Z,11.90
2023-01-13T17:54:53.630Z,12.10
2023-01-13T17:57:39.500Z,11.66
2023-01-13T18:00:24.854Z,11.64
2023-01-13T18:03:11.456Z,12.03
2023-01-13T18:06:04.227Z,11.66
2023-01-13T18:08:51.851Z,11.93
2023-01-13T18:11:37.698Z,11.15
2023-01-13T18:14:23.360Z,10.90
2023-01-13T18:17:08.765Z,10.80
2023-01-13T18:20:13.203Z,11.32
2023-01-13T18:23:16.905Z,11.43
2023-01-13T18:26:38.411Z,11.47
2023-01-13T18:29:24.029Z,10.93
2023-01-13T18:32:10.112Z,11.46
2023-01-13T18:35:05.016Z,11.73
2023-01-13T18:37:52.243Z,11.18
2023-01-13T18:40:37.700Z,11.22
2023-01-13T18:43:23.118Z,11.39
2023-01-13T18:46:08.659Z,11.01
2023-01-13T18:48:54.450Z,11.35
2023-01-13T18:51:39.839Z,11.18
2023-01-13T18:54:25.749Z,10.64
2023-01-13T18:57:10.950Z,10.71
2023-01-13T18:59:59.269Z,10.90
2023-01-13T19:02:47.253Z,10.98
2023-01-13T19:05:34.689Z,10.95
2023-01-13T19:08:20.305Z,11.21
2023-01-13T19:11:07.258Z,10.37
2023-01-13T19:13:53.206Z,10.35
2023-01-13T19:16:39.211Z,10.63
2023-01-13T19:19:24.647Z,10.84
2023-01-13T19:22:12.474Z,11.00
2023-01-13T19:24:58.948Z,10.70
2023-01-13T19:27:44.629Z,11.12
2023-01-13T19:30:30.002Z,10.69
2023-01-13T19:33:15.501Z,10.41
2023-01-13T19:36:03.311Z,10.53
2023-01-13T19:38:48.902Z,10.88
2023-01-13T19:41:53.079Z,10.54
2023-01-13T19:44:57.538Z,10.54
2023-01-13T19:47:45.341Z,11.02
2023-01-13T19:50:31.243Z,11.04
2023-01-13T19:53:17.955Z,10.68
2023-01-13T19:56:06.091Z,10.23
2023-01-13T19:58:51.646Z,10.70
2023-01-13T20:01:40.651Z,11.05
2023-01-13T20:04:37.672Z,10.92
2023-01-13T20:07:26.366Z,10.30
2023-01-13T20:10:13.356Z,10.88
2023-01-13T20:12:59.417Z,10.50
2023-01-13T20:15:44.811Z,10.58
2023-01-13T20:18:35.733Z,10.54
2023-01-13T20:21:21.142Z,10.65
2023-01-13T20:24:07.749Z,10.32
2023-01-13T20:26:54.582Z,10.64
2023-01-13T20:29:40.336Z,10.33
2023-01-13T20:32:25.790Z,10.45
2023-01-13T20:35:11.837Z,10.79
2023-01-13T20:37:57.283Z,10.77
2023-01-13T20:40:42.600Z,10.97
2023-01-13T20:43:28.081Z,10.42
2023-01-13T20:46:13.780Z,10.25
2023-01-13T20:48:59.608Z,10.58
2023-01-13T20:51:45.100Z,10.29
2023-01-13T20:54:30.661Z,10.86
2023-01-13T20:57:16.265Z,10.42
2023-01-13T21:00:02.836Z,10.73
2023-01-13T21:02:48.366Z,10.91
2023-01-13T21:05:36.340Z,10.75
2023-01-13T21:08:22.124Z,10.99
2023-01-13T21:11:10.491Z,11.44
2023-01-13T21:14:14.293Z,11.10
2023-01-13T21:17:00.438Z,11.14
2023-01-13T21:19:46.220Z,11.27
2023-01-13T21:22:31.724Z,10.72
2023-01-13T21:25:19.058Z,11.76
2023-01-13T21:28:10.178Z,10.87
2023-01-13T21:30:55.622Z,11.76
2023-01-13T21:33:41.087Z,10.84
2023-01-13T21:36:28.413Z,11.15
2023-01-13T21:39:15.975Z,11.61
2023-01-13T21:42:20.640Z,11.42
2023-01-13T21:45:25.359Z,11.39
2023-01-13T21:48:11.141Z,11.41
2023-01-13T21:51:01.208Z,11.20
2023-01-13T21:53:46.745Z,11.43
2023-01-13T21:56:32.253Z,11.31
2023-01-13T21:59:17.727Z,10.80
2023-01-13T22:02:25.013Z,11.28
2023-01-13T22:05:13.272Z,10.95
2023-01-13T22:07:58.769Z,10.36
2023-01-13T22:11:10.592Z,10.62
2023-01-13T22:14:13.405Z,10.75
2023-01-13T22:17:01.062Z,10.77
2023-01-13T22:19:53.845Z,10.95
2023-01-13T22:22:39.847Z,11.33
2023-01-13T22:25:25.531Z,11.36
2023-01-13T22:28:13.878Z,11.12
2023-01-13T22:31:06.919Z,10.94
2023-01-13T22:33:55.210Z,10.75
2023-01-13T22:36:40.989Z,11.16
2023-01-13T22:39:26.882Z,10.78
2023-01-13T22:42:12.528Z,10.74
2023-01-13T22:44:58.124Z,10.88
2023-01-13T22:47:43.549Z,11.06
2023-01-13T22:50:29.256Z,11.12
2023-01-13T22:53:14.931Z,10.72
2023-01-13T22:56:01.095Z,11.20
2023-01-13T22:58:46.599Z,10.88
2023-01-13T23:01:35.047Z,10.72
2023-01-13T23:04:20.793Z,10.54
2023-01-13T23:07:07.967Z,10.46
2023-01-13T23:09:53.743Z,10.26
2023-01-13T23:12:39.093Z,10.24
2023-01-13T23:15:25.112Z,10.38
2023-01-13T23:18:10.393Z,10.60
2023-01-13T23:20:55.842Z,10.31
2023-01-13T23:23:41.434Z,10.14
2023-01-13T23:26:28.280Z,9.77
2023-01-13T23:29:13.858Z,9.99
2023-01-13T23:31:59.188Z,10.26
2023-01-13T23:34:44.505Z,9.64
2023-01-13T23:37:29.971Z,10.66
2023-01-13T23:40:15.355Z,9.97
2023-01-13T23:43:01.011Z,9.79
2023-01-13T23:45:47.377Z,9.98
2023-01-13T23:48:33.684Z,9.87
2023-01-13T23:51:21.330Z,9.78
2023-01-13T23:54:07.059Z,9.72
2023-01-13T23:56:52.709Z,10.06
2023-01-13T23:59:38.223Z,9.73
